METAR Data
IDs: Format: Raw Decoded Include TAF

Data at: 0538 UTC 18 Oct 2018

KDHN 180453Z AUTO 03008KT 10SM CLR 19/16 A3027 RMK AO2 SLP244 T01940156 403220194